Aviation Digital Data Service (ADDS)

Output produced by METARs form (2218 UTC 01 October 2016)
found at http://aviationweather.gov/adds/metars/
 
KATL 012150Z 0122/0224 33005KT P6SM FEW060 
     FM020100 34003KT P6SM FEW060 SCT250 
     FM020900 33004KT P6SM BKN150 
     FM021700 32007KT P6SM FEW040 BKN200